sensor_id;sensor_type;location;lat;lon;timestamp;P1;durP1;ratioP1;P2;durP2;ratioP2
56631;SDS011;42503;39.928;-75.152;2022-07-29T00:00:37;6.18;;;5.55;;
56631;SDS011;42503;39.928;-75.152;2022-07-29T00:02:38;5.22;;;4.75;;
56631;SDS011;42503;39.928;-75.152;2022-07-29T00:04:42;5.07;;;4.65;;
56631;SDS011;42503;39.928;-75.152;2022-07-29T00:06:42;5.55;;;5.05;;
56631;SDS011;42503;39.928;-75.152;2022-07-29T00:08:53;5.60;;;4.80;;
56631;SDS011;42503;39.928;-75.152;2022-07-29T00:10:53;5.22;;;4.72;;
56631;SDS011;42503;39.928;-75.152;2022-07-29T00:12:57;5.25;;;4.80;;
56631;SDS011;42503;39.928;-75.152;2022-07-29T00:14:58;5.40;;;4.90;;
56631;SDS011;42503;39.928;-75.152;2022-07-29T00:16:59;5.35;;;4.88;;
56631;SDS011;42503;39.928;-75.152;2022-07-29T00:19:00;5.88;;;5.38;;
56631;SDS011;42503;39.928;-75.152;2022-07-29T00:21:01;6.22;;;5.20;;
56631;SDS011;42503;39.928;-75.152;2022-07-29T00:23:02;5.00;;;4.50;;
56631;SDS011;42503;39.928;-75.152;2022-07-29T00:25:03;5.10;;;4.60;;
56631;SDS011;42503;39.928;-75.152;2022-07-29T00:27:03;5.13;;;4.60;;
56631;SDS011;42503;39.928;-75.152;2022-07-29T00:29:04;5.35;;;4.85;;
56631;SDS011;42503;39.928;-75.152;2022-07-29T00:31:05;5.30;;;4.80;;
56631;SDS011;42503;39.928;-75.152;2022-07-29T00:33:26;5.22;;;4.72;;
56631;SDS011;42503;39.928;-75.152;2022-07-29T00:35:27;5.10;;;4.63;;
56631;SDS011;42503;39.928;-75.152;2022-07-29T00:37:46;5.38;;;4.88;;
56631;SDS011;42503;39.928;-75.152;2022-07-29T00:39:47;5.43;;;4.93;;
56631;SDS011;42503;39.928;-75.152;2022-07-29T00:41:48;6.03;;;5.20;;
56631;SDS011;42503;39.928;-75.152;2022-07-29T00:43:49;5.15;;;4.65;;
56631;SDS011;42503;39.928;-75.152;2022-07-29T00:45:50;5.28;;;4.78;;
56631;SDS011;42503;39.928;-75.152;2022-07-29T00:47:51;6.25;;;4.90;;
56631;SDS011;42503;39.928;-75.152;2022-07-29T00:49:52;5.57;;;5.07;;
56631;SDS011;42503;39.928;-75.152;2022-07-29T00:51:53;6.50;;;4.57;;
56631;SDS011;42503;39.928;-75.152;2022-07-29T00:53:53;5.60;;;5.10;;
56631;SDS011;42503;39.928;-75.152;2022-07-29T00:55:54;6.50;;;5.00;;
56631;SDS011;42503;39.928;-75.152;2022-07-29T00:57:55;5.35;;;4.60;;
56631;SDS011;42503;39.928;-75.152;2022-07-29T00:59:57;5.40;;;4.82;;
56631;SDS011;42503;39.928;-75.152;2022-07-29T01:01:58;8.00;;;4.88;;
56631;SDS011;42503;39.928;-75.152;2022-07-29T01:04:01;5.20;;;4.63;;
56631;SDS011;42503;39.928;-75.152;2022-07-29T01:06:02;6.80;;;5.10;;
56631;SDS011;42503;39.928;-75.152;2022-07-29T01:08:04;5.60;;;4.63;;
56631;SDS011;42503;39.928;-75.152;2022-07-29T01:10:06;5.05;;;4.55;;
56631;SDS011;42503;39.928;-75.152;2022-07-29T01:12:11;5.28;;;4.78;;
56631;SDS011;42503;39.928;-75.152;2022-07-29T01:14:13;5.35;;;4.78;;
56631;SDS011;42503;39.928;-75.152;2022-07-29T01:16:17;5.40;;;4.88;;
56631;SDS011;42503;39.928;-75.152;2022-07-29T01:18:28;4.43;;;4.03;;
56631;SDS011;42503;39.928;-75.152;2022-07-29T01:27:05;5.20;;;4.70;;
56631;SDS011;42503;39.928;-75.152;2022-07-29T01:29:24;5.63;;;5.10;;
56631;SDS011;42503;39.928;-75.152;2022-07-29T01:31:50;6.13;;;4.70;;
56631;SDS011;42503;39.928;-75.152;2022-07-29T01:33:50;5.93;;;4.80;;
56631;SDS011;42503;39.928;-75.152;2022-07-29T01:35:56;5.40;;;4.75;;
56631;SDS011;42503;39.928;-75.152;2022-07-29T01:38:05;4.97;;;4.47;;
56631;SDS011;42503;39.928;-75.152;2022-07-29T01:40:10;6.18;;;4.55;;
56631;SDS011;42503;39.928;-75.152;2022-07-29T01:42:16;5.55;;;4.88;;
56631;SDS011;42503;39.928;-75.152;2022-07-29T01:44:20;6.65;;;4.50;;
56631;SDS011;42503;39.928;-75.152;2022-07-29T01:46:33;6.10;;;4.78;;
56631;SDS011;42503;39.928;-75.152;2022-07-29T01:48:40;6.25;;;4.72;;
56631;SDS011;42503;39.928;-75.152;2022-07-29T01:50:46;5.05;;;4.50;;
56631;SDS011;42503;39.928;-75.152;2022-07-29T01:52:49;5.13;;;4.45;;
56631;SDS011;42503;39.928;-75.152;2022-07-29T01:54:54;5.25;;;4.75;;
56631;SDS011;42503;39.928;-75.152;2022-07-29T01:56:56;4.57;;;4.18;;
56631;SDS011;42503;39.928;-75.152;2022-07-29T01:58:58;4.93;;;4.50;;
56631;SDS011;42503;39.928;-75.152;2022-07-29T02:01:02;5.80;;;4.68;;
56631;SDS011;42503;39.928;-75.152;2022-07-29T02:03:09;4.63;;;4.20;;
56631;SDS011;42503;39.928;-75.152;2022-07-29T02:05:10;4.93;;;4.30;;
56631;SDS011;42503;39.928;-75.152;2022-07-29T02:07:13;5.85;;;5.03;;
56631;SDS011;42503;39.928;-75.152;2022-07-29T02:09:16;5.75;;;4.88;;
56631;SDS011;42503;39.928;-75.152;2022-07-29T02:11:18;5.85;;;5.10;;
56631;SDS011;42503;39.928;-75.152;2022-07-29T02:13:19;5.45;;;4.78;;
56631;SDS011;42503;39.928;-75.152;2022-07-29T02:15:20;5.40;;;4.45;;
56631;SDS011;42503;39.928;-75.152;2022-07-29T02:17:26;6.00;;;4.90;;
56631;SDS011;42503;39.928;-75.152;2022-07-29T02:19:28;4.78;;;4.25;;
56631;SDS011;42503;39.928;-75.152;2022-07-29T02:21:32;6.13;;;4.85;;
56631;SDS011;42503;39.928;-75.152;2022-07-29T02:23:34;5.93;;;4.68;;
56631;SDS011;42503;39.928;-75.152;2022-07-29T02:25:38;4.75;;;4.05;;
56631;SDS011;42503;39.928;-75.152;2022-07-29T02:27:41;4.43;;;4.03;;
56631;SDS011;42503;39.928;-75.152;2022-07-29T02:29:43;5.63;;;4.38;;
56631;SDS011;42503;39.928;-75.152;2022-07-29T02:31:49;4.50;;;4.10;;
56631;SDS011;42503;39.928;-75.152;2022-07-29T02:33:50;5.38;;;4.60;;
56631;SDS011;42503;39.928;-75.152;2022-07-29T02:35:51;4.53;;;4.13;;
56631;SDS011;42503;39.928;-75.152;2022-07-29T02:37:53;4.50;;;4.10;;
56631;SDS011;42503;39.928;-75.152;2022-07-29T02:40:13;4.55;;;3.72;;
56631;SDS011;42503;39.928;-75.152;2022-07-29T02:42:15;6.50;;;4.20;;
56631;SDS011;42503;39.928;-75.152;2022-07-29T02:44:18;6.53;;;3.75;;
56631;SDS011;42503;39.928;-75.152;2022-07-29T02:46:21;4.75;;;4.10;;
56631;SDS011;42503;39.928;-75.152;2022-07-29T02:48:36;4.72;;;4.32;;
56631;SDS011;42503;39.928;-75.152;2022-07-29T02:50:38;5.60;;;3.95;;
56631;SDS011;42503;39.928;-75.152;2022-07-29T02:52:49;4.45;;;4.05;;
56631;SDS011;42503;39.928;-75.152;2022-07-29T02:57:23;7.00;;;4.57;;
56631;SDS011;42503;39.928;-75.152;2022-07-29T02:59:28;4.95;;;4.15;;
56631;SDS011;42503;39.928;-75.152;2022-07-29T03:01:30;4.03;;;3.63;;
56631;SDS011;42503;39.928;-75.152;2022-07-29T03:03:34;8.23;;;3.90;;
56631;SDS011;42503;39.928;-75.152;2022-07-29T03:05:39;7.93;;;4.47;;
56631;SDS011;42503;39.928;-75.152;2022-07-29T03:07:40;4.50;;;4.05;;
56631;SDS011;42503;39.928;-75.152;2022-07-29T03:09:42;4.65;;;4.20;;
56631;SDS011;42503;39.928;-75.152;2022-07-29T03:11:43;4.45;;;3.72;;
56631;SDS011;42503;39.928;-75.152;2022-07-29T03:13:44;5.30;;;4.05;;
56631;SDS011;42503;39.928;-75.152;2022-07-29T03:15:45;7.15;;;4.47;;
56631;SDS011;42503;39.928;-75.152;2022-07-29T03:17:47;7.03;;;4.22;;
56631;SDS011;42503;39.928;-75.152;2022-07-29T03:19:50;6.28;;;4.35;;
56631;SDS011;42503;39.928;-75.152;2022-07-29T03:21:51;5.53;;;4.93;;
56631;SDS011;42503;39.928;-75.152;2022-07-29T03:23:52;6.97;;;4.20;;
56631;SDS011;42503;39.928;-75.152;2022-07-29T03:25:53;6.60;;;4.07;;
56631;SDS011;42503;39.928;-75.152;2022-07-29T03:27:54;4.80;;;3.95;;
56631;SDS011;42503;39.928;-75.152;2022-07-29T03:29:56;5.38;;;4.18;;
56631;SDS011;42503;39.928;-75.152;2022-07-29T03:31:57;4.40;;;3.90;;
56631;SDS011;42503;39.928;-75.152;2022-07-29T03:33:58;4.32;;;3.85;;
56631;SDS011;42503;39.928;-75.152;2022-07-29T03:35:59;7.03;;;3.63;;
56631;SDS011;42503;39.928;-75.152;2022-07-29T03:38:02;5.35;;;3.92;;
56631;SDS011;42503;39.928;-75.152;2022-07-29T03:40:07;4.75;;;3.97;;
56631;SDS011;42503;39.928;-75.152;2022-07-29T03:42:08;5.72;;;3.55;;
56631;SDS011;42503;39.928;-75.152;2022-07-29T03:44:11;5.32;;;3.97;;
56631;SDS011;42503;39.928;-75.152;2022-07-29T03:46:12;5.05;;;3.60;;
56631;SDS011;42503;39.928;-75.152;2022-07-29T03:48:18;4.90;;;3.83;;
56631;SDS011;42503;39.928;-75.152;2022-07-29T03:50:20;5.10;;;4.05;;
56631;SDS011;42503;39.928;-75.152;2022-07-29T03:52:21;4.72;;;3.78;;
56631;SDS011;42503;39.928;-75.152;2022-07-29T03:54:22;3.95;;;3.55;;
56631;SDS011;42503;39.928;-75.152;2022-07-29T03:56:23;4.05;;;3.53;;
56631;SDS011;42503;39.928;-75.152;2022-07-29T03:58:26;4.20;;;3.80;;
56631;SDS011;42503;39.928;-75.152;2022-07-29T04:00:27;4.35;;;3.95;;
56631;SDS011;42503;39.928;-75.152;2022-07-29T04:02:28;5.30;;;3.70;;
56631;SDS011;42503;39.928;-75.152;2022-07-29T04:04:31;4.57;;;3.83;;
56631;SDS011;42503;39.928;-75.152;2022-07-29T04:06:39;5.20;;;3.97;;
56631;SDS011;42503;39.928;-75.152;2022-07-29T04:08:40;3.85;;;3.33;;
56631;SDS011;42503;39.928;-75.152;2022-07-29T04:10:41;4.07;;;3.67;;
56631;SDS011;42503;39.928;-75.152;2022-07-29T04:12:42;3.58;;;3.28;;
56631;SDS011;42503;39.928;-75.152;2022-07-29T04:14:45;3.65;;;3.35;;
56631;SDS011;42503;39.928;-75.152;2022-07-29T04:16:46;4.38;;;3.53;;
56631;SDS011;42503;39.928;-75.152;2022-07-29T04:18:47;4.03;;;3.40;;
56631;SDS011;42503;39.928;-75.152;2022-07-29T04:20:57;5.65;;;3.80;;
56631;SDS011;42503;39.928;-75.152;2022-07-29T04:23:01;3.85;;;3.38;;
56631;SDS011;42503;39.928;-75.152;2022-07-29T04:25:02;3.97;;;3.65;;
56631;SDS011;42503;39.928;-75.152;2022-07-29T04:27:03;4.60;;;3.63;;
56631;SDS011;42503;39.928;-75.152;2022-07-29T04:29:03;5.18;;;3.80;;
56631;SDS011;42503;39.928;-75.152;2022-07-29T04:31:04;4.82;;;3.38;;
56631;SDS011;42503;39.928;-75.152;2022-07-29T04:33:06;4.20;;;3.22;;
56631;SDS011;42503;39.928;-75.152;2022-07-29T04:35:10;4.05;;;3.65;;
56631;SDS011;42503;39.928;-75.152;2022-07-29T04:37:11;3.70;;;3.40;;
56631;SDS011;42503;39.928;-75.152;2022-07-29T04:39:15;5.43;;;3.65;;
56631;SDS011;42503;39.928;-75.152;2022-07-29T04:41:15;4.63;;;3.22;;
56631;SDS011;42503;39.928;-75.152;2022-07-29T04:43:16;6.00;;;3.55;;
56631;SDS011;42503;39.928;-75.152;2022-07-29T04:45:17;4.78;;;3.80;;
56631;SDS011;42503;39.928;-75.152;2022-07-29T04:47:24;4.88;;;3.60;;
56631;SDS011;42503;39.928;-75.152;2022-07-29T04:49:25;4.60;;;3.70;;
56631;SDS011;42503;39.928;-75.152;2022-07-29T04:51:26;5.63;;;3.63;;
56631;SDS011;42503;39.928;-75.152;2022-07-29T04:53:27;8.18;;;3.92;;
56631;SDS011;42503;39.928;-75.152;2022-07-29T04:55:28;6.47;;;3.60;;
56631;SDS011;42503;39.928;-75.152;2022-07-29T04:57:31;5.07;;;3.58;;
56631;SDS011;42503;39.928;-75.152;2022-07-29T04:59:32;4.95;;;3.30;;
56631;SDS011;42503;39.928;-75.152;2022-07-29T05:01:33;5.68;;;3.25;;
56631;SDS011;42503;39.928;-75.152;2022-07-29T05:03:34;7.55;;;3.67;;
56631;SDS011;42503;39.928;-75.152;2022-07-29T05:05:35;5.15;;;3.28;;
56631;SDS011;42503;39.928;-75.152;2022-07-29T05:07:36;7.20;;;3.95;;
56631;SDS011;42503;39.928;-75.152;2022-07-29T05:09:36;6.78;;;3.70;;
56631;SDS011;42503;39.928;-75.152;2022-07-29T05:11:37;5.90;;;3.45;;
56631;SDS011;42503;39.928;-75.152;2022-07-29T05:13:41;3.45;;;2.95;;
56631;SDS011;42503;39.928;-75.152;2022-07-29T05:15:43;4.97;;;3.40;;
56631;SDS011;42503;39.928;-75.152;2022-07-29T05:17:44;7.63;;;3.40;;
56631;SDS011;42503;39.928;-75.152;2022-07-29T05:19:45;7.15;;;2.95;;
56631;SDS011;42503;39.928;-75.152;2022-07-29T05:21:49;5.38;;;3.58;;
56631;SDS011;42503;39.928;-75.152;2022-07-29T05:23:50;4.32;;;3.92;;
56631;SDS011;42503;39.928;-75.152;2022-07-29T05:25:51;6.47;;;3.42;;
56631;SDS011;42503;39.928;-75.152;2022-07-29T05:27:53;5.82;;;3.47;;
56631;SDS011;42503;39.928;-75.152;2022-07-29T05:29:54;8.32;;;3.10;;
56631;SDS011;42503;39.928;-75.152;2022-07-29T05:31:57;8.68;;;3.28;;
56631;SDS011;42503;39.928;-75.152;2022-07-29T05:33:59;6.57;;;3.38;;
56631;SDS011;42503;39.928;-75.152;2022-07-29T05:36:03;5.95;;;3.40;;
56631;SDS011;42503;39.928;-75.152;2022-07-29T05:38:05;5.63;;;3.58;;
56631;SDS011;42503;39.928;-75.152;2022-07-29T05:40:07;3.50;;;3.00;;
56631;SDS011;42503;39.928;-75.152;2022-07-29T05:42:09;4.18;;;3.20;;
56631;SDS011;42503;39.928;-75.152;2022-07-29T05:44:10;6.72;;;2.95;;
56631;SDS011;42503;39.928;-75.152;2022-07-29T05:46:11;3.72;;;3.03;;
56631;SDS011;42503;39.928;-75.152;2022-07-29T05:48:14;5.90;;;2.88;;
56631;SDS011;42503;39.928;-75.152;2022-07-29T05:50:15;5.88;;;3.33;;
56631;SDS011;42503;39.928;-75.152;2022-07-29T05:52:18;3.38;;;2.92;;
56631;SDS011;42503;39.928;-75.152;2022-07-29T05:54:19;6.10;;;3.20;;
56631;SDS011;42503;39.928;-75.152;2022-07-29T05:56:23;4.43;;;3.30;;
56631;SDS011;42503;39.928;-75.152;2022-07-29T05:58:24;5.53;;;3.42;;
56631;SDS011;42503;39.928;-75.152;2022-07-29T06:00:25;3.53;;;2.83;;
56631;SDS011;42503;39.928;-75.152;2022-07-29T06:02:26;7.70;;;3.00;;
56631;SDS011;42503;39.928;-75.152;2022-07-29T06:04:27;4.30;;;3.38;;
56631;SDS011;42503;39.928;-75.152;2022-07-29T06:06:27;6.57;;;3.42;;
56631;SDS011;42503;39.928;-75.152;2022-07-29T06:08:28;5.50;;;3.17;;
56631;SDS011;42503;39.928;-75.152;2022-07-29T06:10:29;3.38;;;3.00;;
56631;SDS011;42503;39.928;-75.152;2022-07-29T06:12:33;5.07;;;2.67;;
56631;SDS011;42503;39.928;-75.152;2022-07-29T06:14:34;3.28;;;2.97;;
56631;SDS011;42503;39.928;-75.152;2022-07-29T06:16:35;4.32;;;2.97;;
56631;SDS011;42503;39.928;-75.152;2022-07-29T06:18:36;4.72;;;3.10;;
56631;SDS011;42503;39.928;-75.152;2022-07-29T06:20:40;5.07;;;3.10;;
56631;SDS011;42503;39.928;-75.152;2022-07-29T06:22:40;3.70;;;3.20;;
56631;SDS011;42503;39.928;-75.152;2022-07-29T06:24:41;3.90;;;3.15;;
56631;SDS011;42503;39.928;-75.152;2022-07-29T06:26:44;3.80;;;3.20;;
56631;SDS011;42503;39.928;-75.152;2022-07-29T06:28:45;3.85;;;3.03;;
56631;SDS011;42503;39.928;-75.152;2022-07-29T06:30:46;4.40;;;2.63;;
56631;SDS011;42503;39.928;-75.152;2022-07-29T06:32:47;6.07;;;2.65;;
56631;SDS011;42503;39.928;-75.152;2022-07-29T06:34:47;3.22;;;2.83;;
56631;SDS011;42503;39.928;-75.152;2022-07-29T06:36:48;3.20;;;2.90;;
56631;SDS011;42503;39.928;-75.152;2022-07-29T06:38:50;2.95;;;2.58;;
56631;SDS011;42503;39.928;-75.152;2022-07-29T06:40:51;2.90;;;2.63;;
56631;SDS011;42503;39.928;-75.152;2022-07-29T06:43:01;3.25;;;2.60;;
56631;SDS011;42503;39.928;-75.152;2022-07-29T06:45:02;3.70;;;2.80;;
56631;SDS011;42503;39.928;-75.152;2022-07-29T06:47:05;3.20;;;2.90;;
56631;SDS011;42503;39.928;-75.152;2022-07-29T06:49:07;3.35;;;2.80;;
56631;SDS011;42503;39.928;-75.152;2022-07-29T06:51:08;3.90;;;2.80;;
56631;SDS011;42503;39.928;-75.152;2022-07-29T06:53:12;2.47;;;2.17;;
56631;SDS011;42503;39.928;-75.152;2022-07-29T06:55:13;3.23;;;2.67;;
56631;SDS011;42503;39.928;-75.152;2022-07-29T06:57:14;3.13;;;2.78;;
56631;SDS011;42503;39.928;-75.152;2022-07-29T06:59:20;2.55;;;2.35;;
56631;SDS011;42503;39.928;-75.152;2022-07-29T07:01:21;3.70;;;2.60;;
56631;SDS011;42503;39.928;-75.152;2022-07-29T07:03:22;3.40;;;2.97;;
56631;SDS011;42503;39.928;-75.152;2022-07-29T07:05:26;4.30;;;2.87;;
56631;SDS011;42503;39.928;-75.152;2022-07-29T07:07:27;3.20;;;2.78;;
56631;SDS011;42503;39.928;-75.152;2022-07-29T07:09:27;4.72;;;2.45;;
56631;SDS011;42503;39.928;-75.152;2022-07-29T07:11:28;3.58;;;2.42;;
56631;SDS011;42503;39.928;-75.152;2022-07-29T07:13:29;3.72;;;2.47;;
56631;SDS011;42503;39.928;-75.152;2022-07-29T07:15:35;4.28;;;2.97;;
56631;SDS011;42503;39.928;-75.152;2022-07-29T07:17:36;7.15;;;2.65;;
56631;SDS011;42503;39.928;-75.152;2022-07-29T07:19:40;3.00;;;2.42;;
56631;SDS011;42503;39.928;-75.152;2022-07-29T07:21:41;4.00;;;2.40;;
56631;SDS011;42503;39.928;-75.152;2022-07-29T07:23:42;3.70;;;2.70;;
56631;SDS011;42503;39.928;-75.152;2022-07-29T07:25:46;3.30;;;2.78;;
56631;SDS011;42503;39.928;-75.152;2022-07-29T07:27:48;3.15;;;2.85;;
56631;SDS011;42503;39.928;-75.152;2022-07-29T07:29:48;2.58;;;2.35;;
56631;SDS011;42503;39.928;-75.152;2022-07-29T07:31:55;3.45;;;2.55;;
56631;SDS011;42503;39.928;-75.152;2022-07-29T07:33:56;4.07;;;3.13;;
56631;SDS011;42503;39.928;-75.152;2022-07-29T07:35:56;3.08;;;2.58;;
56631;SDS011;42503;39.928;-75.152;2022-07-29T07:37:58;3.35;;;2.60;;
56631;SDS011;42503;39.928;-75.152;2022-07-29T07:39:59;2.78;;;2.33;;
56631;SDS011;42503;39.928;-75.152;2022-07-29T07:42:00;3.20;;;2.60;;
56631;SDS011;42503;39.928;-75.152;2022-07-29T07:44:01;2.75;;;2.55;;
56631;SDS011;42503;39.928;-75.152;2022-07-29T07:46:02;4.07;;;2.60;;
56631;SDS011;42503;39.928;-75.152;2022-07-29T07:48:03;3.75;;;2.20;;
56631;SDS011;42503;39.928;-75.152;2022-07-29T07:50:07;2.70;;;2.47;;
56631;SDS011;42503;39.928;-75.152;2022-07-29T07:52:08;3.03;;;2.67;;
56631;SDS011;42503;39.928;-75.152;2022-07-29T07:54:09;2.67;;;2.47;;
56631;SDS011;42503;39.928;-75.152;2022-07-29T07:56:10;2.50;;;2.30;;
56631;SDS011;42503;39.928;-75.152;2022-07-29T07:58:11;3.13;;;2.83;;
56631;SDS011;42503;39.928;-75.152;2022-07-29T08:00:12;2.42;;;2.20;;
56631;SDS011;42503;39.928;-75.152;2022-07-29T08:02:14;2.72;;;2.50;;
56631;SDS011;42503;39.928;-75.152;2022-07-29T08:04:14;5.47;;;2.67;;
56631;SDS011;42503;39.928;-75.152;2022-07-29T08:06:18;3.78;;;2.95;;
56631;SDS011;42503;39.928;-75.152;2022-07-29T08:08:19;3.03;;;2.72;;
56631;SDS011;42503;39.928;-75.152;2022-07-29T08:10:20;2.47;;;2.20;;
56631;SDS011;42503;39.928;-75.152;2022-07-29T08:12:40;3.13;;;2.83;;
56631;SDS011;42503;39.928;-75.152;2022-07-29T08:14:41;4.32;;;3.10;;
56631;SDS011;42503;39.928;-75.152;2022-07-29T08:16:41;3.15;;;2.80;;
56631;SDS011;42503;39.928;-75.152;2022-07-29T08:18:43;3.08;;;2.33;;
56631;SDS011;42503;39.928;-75.152;2022-07-29T08:20:44;4.70;;;2.78;;
56631;SDS011;42503;39.928;-75.152;2022-07-29T08:22:45;2.13;;;1.98;;
56631;SDS011;42503;39.928;-75.152;2022-07-29T08:24:46;4.05;;;2.53;;
56631;SDS011;42503;39.928;-75.152;2022-07-29T08:26:52;3.67;;;2.70;;
56631;SDS011;42503;39.928;-75.152;2022-07-29T08:28:56;3.13;;;2.30;;
56631;SDS011;42503;39.928;-75.152;2022-07-29T08:30:57;4.22;;;2.42;;
56631;SDS011;42503;39.928;-75.152;2022-07-29T08:33:00;2.63;;;2.35;;
56631;SDS011;42503;39.928;-75.152;2022-07-29T08:35:01;2.75;;;2.55;;
56631;SDS011;42503;39.928;-75.152;2022-07-29T08:37:02;2.92;;;2.28;;
56631;SDS011;42503;39.928;-75.152;2022-07-29T08:39:03;2.50;;;2.30;;
56631;SDS011;42503;39.928;-75.152;2022-07-29T08:41:04;3.50;;;2.60;;
56631;SDS011;42503;39.928;-75.152;2022-07-29T08:43:06;2.40;;;2.20;;
56631;SDS011;42503;39.928;-75.152;2022-07-29T08:45:07;2.30;;;2.10;;
56631;SDS011;42503;39.928;-75.152;2022-07-29T08:47:08;2.95;;;2.05;;
56631;SDS011;42503;39.928;-75.152;2022-07-29T08:49:09;2.90;;;2.40;;
56631;SDS011;42503;39.928;-75.152;2022-07-29T08:51:28;2.92;;;2.63;;
56631;SDS011;42503;39.928;-75.152;2022-07-29T08:53:30;3.33;;;2.45;;
56631;SDS011;42503;39.928;-75.152;2022-07-29T08:55:31;3.70;;;2.35;;
56631;SDS011;42503;39.928;-75.152;2022-07-29T08:57:32;2.17;;;1.98;;
56631;SDS011;42503;39.928;-75.152;2022-07-29T08:59:33;2.08;;;1.88;;
56631;SDS011;42503;39.928;-75.152;2022-07-29T09:01:35;2.97;;;2.50;;
56631;SDS011;42503;39.928;-75.152;2022-07-29T09:03:37;3.20;;;2.28;;
56631;SDS011;42503;39.928;-75.152;2022-07-29T09:05:43;2.20;;;2.00;;
56631;SDS011;42503;39.928;-75.152;2022-07-29T09:07:45;2.55;;;2.33;;
56631;SDS011;42503;39.928;-75.152;2022-07-29T09:09:48;3.60;;;2.38;;
56631;SDS011;42503;39.928;-75.152;2022-07-29T09:11:49;3.30;;;2.60;;
56631;SDS011;42503;39.928;-75.152;2022-07-29T09:13:50;2.50;;;2.30;;
56631;SDS011;42503;39.928;-75.152;2022-07-29T09:15:51;3.28;;;2.33;;
56631;SDS011;42503;39.928;-75.152;2022-07-29T09:17:52;2.58;;;2.00;;
56631;SDS011;42503;39.928;-75.152;2022-07-29T09:19:54;2.33;;;2.13;;
56631;SDS011;42503;39.928;-75.152;2022-07-29T09:22:08;2.83;;;2.30;;
56631;SDS011;42503;39.928;-75.152;2022-07-29T09:24:13;2.67;;;2.47;;
56631;SDS011;42503;39.928;-75.152;2022-07-29T09:26:14;2.67;;;2.22;;
56631;SDS011;42503;39.928;-75.152;2022-07-29T09:28:17;2.38;;;2.17;;
56631;SDS011;42503;39.928;-75.152;2022-07-29T09:30:18;2.55;;;2.20;;
56631;SDS011;42503;39.928;-75.152;2022-07-29T09:32:19;2.03;;;1.83;;
56631;SDS011;42503;39.928;-75.152;2022-07-29T09:34:24;2.50;;;2.30;;
56631;SDS011;42503;39.928;-75.152;2022-07-29T09:36:25;3.45;;;2.50;;
56631;SDS011;42503;39.928;-75.152;2022-07-29T09:38:26;2.80;;;2.10;;
56631;SDS011;42503;39.928;-75.152;2022-07-29T09:40:27;2.40;;;2.20;;
56631;SDS011;42503;39.928;-75.152;2022-07-29T09:42:29;2.47;;;2.00;;
56631;SDS011;42503;39.928;-75.152;2022-07-29T09:44:49;2.45;;;2.00;;
56631;SDS011;42503;39.928;-75.152;2022-07-29T09:46:57;2.20;;;2.00;;
56631;SDS011;42503;39.928;-75.152;2022-07-29T09:49:11;2.10;;;1.90;;
56631;SDS011;42503;39.928;-75.152;2022-07-29T09:51:16;2.27;;;2.07;;
56631;SDS011;42503;39.928;-75.152;2022-07-29T09:55:30;2.83;;;2.22;;
56631;SDS011;42503;39.928;-75.152;2022-07-29T09:57:31;2.63;;;2.20;;
56631;SDS011;42503;39.928;-75.152;2022-07-29T09:59:32;2.53;;;2.20;;
56631;SDS011;42503;39.928;-75.152;2022-07-29T10:01:33;2.72;;;2.30;;
56631;SDS011;42503;39.928;-75.152;2022-07-29T10:03:50;2.20;;;1.80;;
56631;SDS011;42503;39.928;-75.152;2022-07-29T10:06:10;2.33;;;2.13;;
56631;SDS011;42503;39.928;-75.152;2022-07-29T10:08:11;2.72;;;1.92;;
56631;SDS011;42503;39.928;-75.152;2022-07-29T10:10:19;2.58;;;2.38;;
56631;SDS011;42503;39.928;-75.152;2022-07-29T10:12:21;2.70;;;2.20;;
56631;SDS011;42503;39.928;-75.152;2022-07-29T10:14:22;2.55;;;2.35;;
56631;SDS011;42503;39.928;-75.152;2022-07-29T10:16:23;2.90;;;2.22;;
56631;SDS011;42503;39.928;-75.152;2022-07-29T10:18:25;2.22;;;1.98;;
56631;SDS011;42503;39.928;-75.152;2022-07-29T10:20:26;2.35;;;2.15;;
56631;SDS011;42503;39.928;-75.152;2022-07-29T10:22:28;2.15;;;1.95;;
56631;SDS011;42503;39.928;-75.152;2022-07-29T10:24:29;2.72;;;1.77;;
56631;SDS011;42503;39.928;-75.152;2022-07-29T10:26:31;2.30;;;2.10;;
56631;SDS011;42503;39.928;-75.152;2022-07-29T10:28:32;2.10;;;1.85;;
56631;SDS011;42503;39.928;-75.152;2022-07-29T10:30:33;2.83;;;2.25;;
56631;SDS011;42503;39.928;-75.152;2022-07-29T10:37:14;2.70;;;2.40;;
56631;SDS011;42503;39.928;-75.152;2022-07-29T10:41:43;2.25;;;2.05;;
56631;SDS011;42503;39.928;-75.152;2022-07-29T10:43:47;2.53;;;2.17;;
56631;SDS011;42503;39.928;-75.152;2022-07-29T10:45:49;2.30;;;2.10;;
56631;SDS011;42503;39.928;-75.152;2022-07-29T10:48:02;2.08;;;1.88;;
56631;SDS011;42503;39.928;-75.152;2022-07-29T10:50:03;2.20;;;1.98;;
56631;SDS011;42503;39.928;-75.152;2022-07-29T10:52:08;2.35;;;2.15;;
56631;SDS011;42503;39.928;-75.152;2022-07-29T10:54:12;3.47;;;2.15;;
56631;SDS011;42503;39.928;-75.152;2022-07-29T10:56:28;4.28;;;2.00;;
56631;SDS011;42503;39.928;-75.152;2022-07-29T10:58:29;2.92;;;2.28;;
56631;SDS011;42503;39.928;-75.152;2022-07-29T11:00:30;1.95;;;1.83;;
56631;SDS011;42503;39.928;-75.152;2022-07-29T11:09:18;2.20;;;1.90;;
56631;SDS011;42503;39.928;-75.152;2022-07-29T11:15:52;2.10;;;1.90;;
56631;SDS011;42503;39.928;-75.152;2022-07-29T11:22:32;1.80;;;1.70;;
56631;SDS011;42503;39.928;-75.152;2022-07-29T11:24:33;3.08;;;2.03;;
56631;SDS011;42503;39.928;-75.152;2022-07-29T11:26:36;3.85;;;2.22;;
56631;SDS011;42503;39.928;-75.152;2022-07-29T11:28:39;2.08;;;1.73;;
56631;SDS011;42503;39.928;-75.152;2022-07-29T11:30:49;2.65;;;2.45;;
56631;SDS011;42503;39.928;-75.152;2022-07-29T11:32:50;2.55;;;2.35;;
56631;SDS011;42503;39.928;-75.152;2022-07-29T11:39:25;2.25;;;2.05;;
56631;SDS011;42503;39.928;-75.152;2022-07-29T11:41:26;2.17;;;1.98;;
56631;SDS011;42503;39.928;-75.152;2022-07-29T11:43:48;3.10;;;2.17;;
56631;SDS011;42503;39.928;-75.152;2022-07-29T11:45:49;2.50;;;2.00;;
56631;SDS011;42503;39.928;-75.152;2022-07-29T11:47:51;2.20;;;2.00;;
56631;SDS011;42503;39.928;-75.152;2022-07-29T11:49:54;4.97;;;3.05;;
56631;SDS011;42503;39.928;-75.152;2022-07-29T11:51:56;2.50;;;1.73;;
56631;SDS011;42503;39.928;-75.152;2022-07-29T11:53:57;3.25;;;1.90;;
56631;SDS011;42503;39.928;-75.152;2022-07-29T11:55:58;2.15;;;1.95;;
56631;SDS011;42503;39.928;-75.152;2022-07-29T11:58:02;2.75;;;1.90;;
56631;SDS011;42503;39.928;-75.152;2022-07-29T12:00:10;3.20;;;2.05;;
56631;SDS011;42503;39.928;-75.152;2022-07-29T12:02:11;2.40;;;1.98;;
56631;SDS011;42503;39.928;-75.152;2022-07-29T12:04:16;1.98;;;1.77;;
56631;SDS011;42503;39.928;-75.152;2022-07-29T12:06:19;3.45;;;2.30;;
56631;SDS011;42503;39.928;-75.152;2022-07-29T12:08:21;2.17;;;1.98;;
56631;SDS011;42503;39.928;-75.152;2022-07-29T12:10:22;2.70;;;2.20;;
56631;SDS011;42503;39.928;-75.152;2022-07-29T12:12:30;2.15;;;1.95;;
56631;SDS011;42503;39.928;-75.152;2022-07-29T12:14:32;2.53;;;1.92;;
56631;SDS011;42503;39.928;-75.152;2022-07-29T12:16:36;3.72;;;2.10;;
56631;SDS011;42503;39.928;-75.152;2022-07-29T12:18:39;2.08;;;1.98;;
56631;SDS011;42503;39.928;-75.152;2022-07-29T12:20:41;1.73;;;1.63;;
56631;SDS011;42503;39.928;-75.152;2022-07-29T12:22:42;2.10;;;1.90;;
56631;SDS011;42503;39.928;-75.152;2022-07-29T12:24:44;2.40;;;2.03;;
56631;SDS011;42503;39.928;-75.152;2022-07-29T12:26:49;2.22;;;1.92;;
56631;SDS011;42503;39.928;-75.152;2022-07-29T12:28:50;1.98;;;1.83;;
56631;SDS011;42503;39.928;-75.152;2022-07-29T12:30:51;3.55;;;1.85;;
56631;SDS011;42503;39.928;-75.152;2022-07-29T12:32:51;2.10;;;1.90;;
56631;SDS011;42503;39.928;-75.152;2022-07-29T12:34:53;2.28;;;2.08;;
56631;SDS011;42503;39.928;-75.152;2022-07-29T12:36:53;2.33;;;2.13;;